Aviation Digital Data Service (ADDS)

Output produced by METARs form (2235 UTC 26 February 2020)
found at http://www.aviationweather.gov/metar/data/
 
METAR text: KBWI 262154Z 09009KT 8SM OVC007 09/07 A2976 RMK AO2 SLP078 T00940072
Conditions at: KBWI (BALTO/WASH INTL , MD, US) observed 2154 UTC 26 February 2020
Temperature: 9.4°C (49°F)
Dewpoint: 7.2°C (45°F) [RH = 86%]
Pressure (altimeter): 29.76 inches Hg (1007.9 mb)
[Sea-level pressure: 1007.8 mb]
Winds: from the E (90 degrees) at 10 MPH (9 knots; 4.6 m/s)
Visibility: 8 miles (13 km)
Ceiling: 700 feet AGL
Clouds: overcast cloud deck at 700 feet AGL
Weather: no significant weather observed at this time

METAR text: KBWI 262054Z 08008KT 6SM BR OVC006 09/08 A2978 RMK AO2 DZE53 SLP084 P0000 60000 T00940078 58029
Conditions at: KBWI (BALTO/WASH INTL , MD, US) observed 2054 UTC 26 February 2020
Temperature: 9.4°C (49°F)
Dewpoint: 7.8°C (46°F) [RH = 90%]
Pressure (altimeter): 29.78 inches Hg (1008.5 mb)
[Sea-level pressure: 1008.4 mb]
Winds: from the E (80 degrees) at 9 MPH (8 knots; 4.1 m/s)
Visibility: 6 miles (10 km)
Ceiling: 600 feet AGL
Clouds: overcast cloud deck at 600 feet AGL
Weather: BR  (mist)

METAR text: KBWI 261954Z 10007KT 6SM -DZ BR OVC007 10/08 A2982 RMK AO2 DZB47 SLP097 P0000 T01000078
Conditions at: KBWI (BALTO/WASH INTL , MD, US) observed 1954 UTC 26 February 2020
Temperature: 10.0°C (50°F)
Dewpoint: 7.8°C (46°F) [RH = 86%]
Pressure (altimeter): 29.82 inches Hg (1009.9 mb)
[Sea-level pressure: 1009.7 mb]
Winds: from the E (100 degrees) at 8 MPH (7 knots; 3.6 m/s)
Visibility: 6 miles (10 km)
Ceiling: 700 feet AGL
Clouds: overcast cloud deck at 700 feet AGL
Weather: -DZ BR  (light drizzle, mist)

METAR text: KBWI 261854Z 09009KT 6SM BR OVC008 10/08 A2984 RMK AO2 SLP103 T01000078
Conditions at: KBWI (BALTO/WASH INTL , MD, US) observed 1854 UTC 26 February 2020
Temperature: 10.0°C (50°F)
Dewpoint: 7.8°C (46°F) [RH = 86%]
Pressure (altimeter): 29.84 inches Hg (1010.6 mb)
[Sea-level pressure: 1010.3 mb]
Winds: from the E (90 degrees) at 10 MPH (9 knots; 4.6 m/s)
Visibility: 6 miles (10 km)
Ceiling: 800 feet AGL
Clouds: overcast cloud deck at 800 feet AGL
Weather: BR  (mist)

METAR text: KBWI 261754Z 09006KT 8SM OVC008 10/08 A2986 RMK AO2 SLP113 60000 T01000078 10100 20089 58024
Conditions at: KBWI (BALTO/WASH INTL , MD, US) observed 1754 UTC 26 February 2020
Temperature: 10.0°C (50°F)
Dewpoint: 7.8°C (46°F) [RH = 86%]
Pressure (altimeter): 29.86 inches Hg (1011.3 mb)
[Sea-level pressure: 1011.3 mb]
Winds: from the E (90 degrees) at 7 MPH (6 knots; 3.1 m/s)
Visibility: 8 miles (13 km)
Ceiling: 800 feet AGL
Clouds: overcast cloud deck at 800 feet AGL
Weather: no significant weather observed at this time

METAR text: KBWI 261654Z 08005KT 8SM OVC008 10/08 A2990 RMK AO2 SLP124 T01000078
Conditions at: KBWI (BALTO/WASH INTL , MD, US) observed 1654 UTC 26 February 2020
Temperature: 10.0°C (50°F)
Dewpoint: 7.8°C (46°F) [RH = 86%]
Pressure (altimeter): 29.90 inches Hg (1012.6 mb)
[Sea-level pressure: 1012.4 mb]
Winds: from the E (80 degrees) at 6 MPH (5 knots; 2.6 m/s)
Visibility: 8 miles (13 km)
Ceiling: 800 feet AGL
Clouds: overcast cloud deck at 800 feet AGL
Weather: no significant weather observed at this time

METAR text: KBWI 261615Z 09009KT 5SM BR BKN005 OVC008 10/08 A2990 RMK AO2 T01000078
Conditions at: KBWI (BALTO/WASH INTL , MD, US) observed 1615 UTC 26 February 2020
Temperature: 10.0°C (50°F)
Dewpoint: 7.8°C (46°F) [RH = 86%]
Pressure (altimeter): 29.90 inches Hg (1012.6 mb)
Winds: from the E (90 degrees) at 10 MPH (9 knots; 4.6 m/s)
Visibility: 5 miles ( 8 km)
Ceiling: 500 feet AGL
Clouds: broken clouds at 500 feet AGL
overcast cloud deck at 800 feet AGL
Weather: BR  (mist)

METAR text: KBWI 261554Z 08007KT 3SM BR BKN003 OVC008 10/08 A2992 RMK AO2 DZE44 SLP131 P0000 T01000083
Conditions at: KBWI (BALTO/WASH INTL , MD, US) observed 1554 UTC 26 February 2020
Temperature: 10.0°C (50°F)
Dewpoint: 8.3°C (47°F) [RH = 89%]
Pressure (altimeter): 29.92 inches Hg (1013.3 mb)
[Sea-level pressure: 1013.1 mb]
Winds: from the E (80 degrees) at 8 MPH (7 knots; 3.6 m/s)
Visibility: 3 miles ( 5 km)
Ceiling: 300 feet AGL
Clouds: broken clouds at 300 feet AGL
overcast cloud deck at 800 feet AGL
Weather: BR  (mist)

METAR text: KBWI 261544Z 09008KT 2SM BR BKN002 OVC006 10/08 A2993 RMK AO2 DZE44 P0000 T01000083
Conditions at: KBWI (BALTO/WASH INTL , MD, US) observed 1544 UTC 26 February 2020
Temperature: 10.0°C (50°F)
Dewpoint: 8.3°C (47°F) [RH = 89%]
Pressure (altimeter): 29.93 inches Hg (1013.6 mb)
Winds: from the E (90 degrees) at 9 MPH (8 knots; 4.1 m/s)
Visibility: 2.00 miles (3.22 km)
Ceiling: 200 feet AGL
Clouds: broken clouds at 200 feet AGL
overcast cloud deck at 600 feet AGL
Weather: BR  (mist)

METAR text: KBWI 261454Z 07004KT 1SM R10/P6000FT -DZ BR OVC002 09/08 A2994 RMK AO2 SLP137 P0000 60000 T00940083 50015
Conditions at: KBWI (BALTO/WASH INTL , MD, US) observed 1454 UTC 26 February 2020
Temperature: 9.4°C (49°F)
Dewpoint: 8.3°C (47°F) [RH = 93%]
Pressure (altimeter): 29.94 inches Hg (1014.0 mb)
[Sea-level pressure: 1013.7 mb]
Winds: from the ENE (70 degrees) at 5 MPH (4 knots; 2.1 m/s)
Visibility: 1.00 miles (1.61 km)
Ceiling: 200 feet AGL
Clouds: overcast cloud deck at 200 feet AGL
Weather: -DZ BR  (light drizzle, mist)

METAR text: KBWI 261354Z 10004KT 1SM R10/P6000FT -DZ BR OVC002 09/08 A2994 RMK AO2 DZB52 SLP139 P0000 T00890078
Conditions at: KBWI (BALTO/WASH INTL , MD, US) observed 1354 UTC 26 February 2020
Temperature: 8.9°C (48°F)
Dewpoint: 7.8°C (46°F) [RH = 93%]
Pressure (altimeter): 29.94 inches Hg (1014.0 mb)
[Sea-level pressure: 1013.9 mb]
Winds: from the E (100 degrees) at 5 MPH (4 knots; 2.1 m/s)
Visibility: 1.00 miles (1.61 km)
Ceiling: 200 feet AGL
Clouds: overcast cloud deck at 200 feet AGL
Weather: -DZ BR  (light drizzle, mist)

METAR text: KBWI 261254Z 10005KT 1SM R10/P6000FT BR OVC002 09/08 A2991 RMK AO2 SLP129 T00890078
Conditions at: KBWI (BALTO/WASH INTL , MD, US) observed 1254 UTC 26 February 2020
Temperature: 8.9°C (48°F)
Dewpoint: 7.8°C (46°F) [RH = 93%]
Pressure (altimeter): 29.91 inches Hg (1013.0 mb)
[Sea-level pressure: 1012.9 mb]
Winds: from the E (100 degrees) at 6 MPH (5 knots; 2.6 m/s)
Visibility: 1.00 miles (1.61 km)
Ceiling: 200 feet AGL
Clouds: overcast cloud deck at 200 feet AGL
Weather: BR  (mist)

METAR text: KBWI 261216Z 11005KT 1SM R10/P6000FT BR OVC002 09/08 A2990 RMK AO2 T00890078
Conditions at: KBWI (BALTO/WASH INTL , MD, US) observed 1216 UTC 26 February 2020
Temperature: 8.9°C (48°F)
Dewpoint: 7.8°C (46°F) [RH = 93%]
Pressure (altimeter): 29.90 inches Hg (1012.6 mb)
Winds: from the ESE (110 degrees) at 6 MPH (5 knots; 2.6 m/s)
Visibility: 1.00 miles (1.61 km)
Ceiling: 200 feet AGL
Clouds: overcast cloud deck at 200 feet AGL
Weather: BR  (mist)

METAR text: KBWI 261154Z 11004KT 3/4SM R10/P6000FT BR OVC002 09/08 A2989 RMK AO2 SLP122 70022 T00890078 10100 20089 53009
Conditions at: KBWI (BALTO/WASH INTL , MD, US) observed 1154 UTC 26 February 2020
Temperature: 8.9°C (48°F)
Dewpoint: 7.8°C (46°F) [RH = 93%]
Pressure (altimeter): 29.89 inches Hg (1012.3 mb)
[Sea-level pressure: 1012.2 mb]
Winds: from the ESE (110 degrees) at 5 MPH (4 knots; 2.1 m/s)
Visibility: 0.75 miles (1.21 km)
Ceiling: 200 feet AGL
Clouds: overcast cloud deck at 200 feet AGL
Weather: BR  (mist)

METAR text: KBWI 261054Z 10006KT 1/2SM R10/2800V4000FT FG VV002 09/08 A2987 RMK AO2 SLP116 T00940083
Conditions at: KBWI (BALTO/WASH INTL , MD, US) observed 1054 UTC 26 February 2020
Temperature: 9.4°C (49°F)
Dewpoint: 8.3°C (47°F) [RH = 93%]
Pressure (altimeter): 29.87 inches Hg (1011.6 mb)
[Sea-level pressure: 1011.6 mb]
Winds: from the E (100 degrees) at 7 MPH (6 knots; 3.1 m/s)
Visibility: 0.50 miles (0.80 km)
Ceiling: indefinite ceiling with vertical visibility of 200 feet AGL
Clouds: obscured sky
Weather: FG  (fog)

METAR text: KBWI 260954Z 08005KT 1/2SM R10/3000V4000FT FG VV002 09/08 A2986 RMK AO2 SLP111 T00940083
Conditions at: KBWI (BALTO/WASH INTL , MD, US) observed 0954 UTC 26 February 2020
Temperature: 9.4°C (49°F)
Dewpoint: 8.3°C (47°F) [RH = 93%]
Pressure (altimeter): 29.86 inches Hg (1011.3 mb)
[Sea-level pressure: 1011.1 mb]
Winds: from the E (80 degrees) at 6 MPH (5 knots; 2.6 m/s)
Visibility: 0.50 miles (0.80 km)
Ceiling: indefinite ceiling with vertical visibility of 200 feet AGL
Clouds: obscured sky
Weather: FG  (fog)

METAR text: KBWI 260854Z 08004KT 3/4SM R10/P6000FT BR OVC002 09/08 A2986 RMK AO2 SLP113 T00940083 55001
Conditions at: KBWI (BALTO/WASH INTL , MD, US) observed 0854 UTC 26 February 2020
Temperature: 9.4°C (49°F)
Dewpoint: 8.3°C (47°F) [RH = 93%]
Pressure (altimeter): 29.86 inches Hg (1011.3 mb)
[Sea-level pressure: 1011.3 mb]
Winds: from the E (80 degrees) at 5 MPH (4 knots; 2.1 m/s)
Visibility: 0.75 miles (1.21 km)
Ceiling: 200 feet AGL
Clouds: overcast cloud deck at 200 feet AGL
Weather: BR  (mist)

METAR text: KBWI 260754Z 08006KT 3/4SM R10/P6000FT BR OVC003 09/08 A2986 RMK AO2 SLP112 T00940083
Conditions at: KBWI (BALTO/WASH INTL , MD, US) observed 0754 UTC 26 February 2020
Temperature: 9.4°C (49°F)
Dewpoint: 8.3°C (47°F) [RH = 93%]
Pressure (altimeter): 29.86 inches Hg (1011.3 mb)
[Sea-level pressure: 1011.2 mb]
Winds: from the E (80 degrees) at 7 MPH (6 knots; 3.1 m/s)
Visibility: 0.75 miles (1.21 km)
Ceiling: 300 feet AGL
Clouds: overcast cloud deck at 300 feet AGL
Weather: BR  (mist)

METAR text: KBWI 260654Z 04004KT 1/2SM R10/3000VP6000FT FG OVC002 10/09 A2986 RMK AO2 SLP112 T01000089
Conditions at: KBWI (BALTO/WASH INTL , MD, US) observed 0654 UTC 26 February 2020
Temperature: 10.0°C (50°F)
Dewpoint: 8.9°C (48°F) [RH = 93%]
Pressure (altimeter): 29.86 inches Hg (1011.3 mb)
[Sea-level pressure: 1011.2 mb]
Winds: from the NE (40 degrees) at 5 MPH (4 knots; 2.1 m/s)
Visibility: 0.50 miles (0.80 km)
Ceiling: 200 feet AGL
Clouds: overcast cloud deck at 200 feet AGL
Weather: FG  (fog)

METAR text: KBWI 260554Z 00000KT 3/4SM R10/P6000FT BR OVC003 10/09 A2987 RMK AO2 SLP114 60000 T01000089 10100 20094 51001
Conditions at: KBWI (BALTO/WASH INTL , MD, US) observed 0554 UTC 26 February 2020
Temperature: 10.0°C (50°F)
Dewpoint: 8.9°C (48°F) [RH = 93%]
Pressure (altimeter): 29.87 inches Hg (1011.6 mb)
[Sea-level pressure: 1011.4 mb]
Winds: calm
Visibility: 0.75 miles (1.21 km)
Ceiling: 300 feet AGL
Clouds: overcast cloud deck at 300 feet AGL
Weather: BR  (mist)

METAR text: KBWI 260454Z VRB03KT 3/4SM R10/5000VP6000FT BR BKN004 OVC013 10/09 A2987 RMK AO2 SLP114 T01000089 401060078
Conditions at: KBWI (BALTO/WASH INTL , MD, US) observed 0454 UTC 26 February 2020
Temperature: 10.0°C (50°F)
Dewpoint: 8.9°C (48°F) [RH = 93%]
Pressure (altimeter): 29.87 inches Hg (1011.6 mb)
[Sea-level pressure: 1011.4 mb]
Winds: variable direction winds at 3 MPH (3 knots; 1.5 m/s)
Visibility: 0.75 miles (1.21 km)
Ceiling: 400 feet AGL
Clouds: broken clouds at 400 feet AGL
overcast cloud deck at 1300 feet AGL
Weather: BR  (mist)

METAR text: KBWI 260418Z 13003KT 1/4SM R10/1600V3000FT FG VV003 10/09 A2987 RMK AO2 T01000089
Conditions at: KBWI (BALTO/WASH INTL , MD, US) observed 0418 UTC 26 February 2020
Temperature: 10.0°C (50°F)
Dewpoint: 8.9°C (48°F) [RH = 93%]
Pressure (altimeter): 29.87 inches Hg (1011.6 mb)
Winds: from the SE (130 degrees) at 3 MPH (3 knots; 1.5 m/s)
Visibility: 0.25 miles (0.40 km)
Ceiling: indefinite ceiling with vertical visibility of 300 feet AGL
Clouds: obscured sky
Weather: FG  (fog)

METAR text: KBWI 260401Z 12003KT 1/8SM R10/1400V1800FT FG VV002 10/09 A2987 RMK AO2 T01000089
Conditions at: KBWI (BALTO/WASH INTL , MD, US) observed 0401 UTC 26 February 2020
Temperature: 10.0°C (50°F)
Dewpoint: 8.9°C (48°F) [RH = 93%]
Pressure (altimeter): 29.87 inches Hg (1011.6 mb)
Winds: from the ESE (120 degrees) at 3 MPH (3 knots; 1.5 m/s)
Visibility: 0.13 miles (0.21 km)
Ceiling: indefinite ceiling with vertical visibility of 200 feet AGL
Clouds: obscured sky
Weather: FG  (fog)

METAR text: KBWI 260354Z 00000KT 1/4SM R10/1600V4000FT FG VV002 10/09 A2987 RMK AO2 SLP116 T01000094
Conditions at: KBWI (BALTO/WASH INTL , MD, US) observed 0354 UTC 26 February 2020
Temperature: 10.0°C (50°F)
Dewpoint: 9.4°C (49°F) [RH = 96%]
Pressure (altimeter): 29.87 inches Hg (1011.6 mb)
[Sea-level pressure: 1011.6 mb]
Winds: calm
Visibility: 0.25 miles (0.40 km)
Ceiling: indefinite ceiling with vertical visibility of 200 feet AGL
Clouds: obscured sky
Weather: FG  (fog)

METAR text: KBWI 260254Z 00000KT 3/4SM R10/5500VP6000FT BR OVC003 10/09 A2986 RMK AO2 DZE52 SLP113 P0000 60000 T01000089 53009
Conditions at: KBWI (BALTO/WASH INTL , MD, US) observed 0254 UTC 26 February 2020
Temperature: 10.0°C (50°F)
Dewpoint: 8.9°C (48°F) [RH = 93%]
Pressure (altimeter): 29.86 inches Hg (1011.3 mb)
[Sea-level pressure: 1011.3 mb]
Winds: calm
Visibility: 0.75 miles (1.21 km)
Ceiling: 300 feet AGL
Clouds: overcast cloud deck at 300 feet AGL
Weather: BR  (mist)

METAR text: KBWI 260154Z 00000KT 3/4SM R10/6000VP6000FT -DZ BR OVC004 10/09 A2985 RMK AO2 SLP108 P0000 T01000089
Conditions at: KBWI (BALTO/WASH INTL , MD, US) observed 0154 UTC 26 February 2020
Temperature: 10.0°C (50°F)
Dewpoint: 8.9°C (48°F) [RH = 93%]
Pressure (altimeter): 29.85 inches Hg (1010.9 mb)
[Sea-level pressure: 1010.8 mb]
Winds: calm
Visibility: 0.75 miles (1.21 km)
Ceiling: 400 feet AGL
Clouds: overcast cloud deck at 400 feet AGL
Weather: -DZ BR  (light drizzle, mist)

METAR text: KBWI 260054Z 03004KT 1SM R10/P6000FT -DZ BR OVC004 10/09 A2984 RMK AO2 SLP105 P0000 T01000089
Conditions at: KBWI (BALTO/WASH INTL , MD, US) observed 0054 UTC 26 February 2020
Temperature: 10.0°C (50°F)
Dewpoint: 8.9°C (48°F) [RH = 93%]
Pressure (altimeter): 29.84 inches Hg (1010.6 mb)
[Sea-level pressure: 1010.5 mb]
Winds: from the NNE (30 degrees) at 5 MPH (4 knots; 2.1 m/s)
Visibility: 1.00 miles (1.61 km)
Ceiling: 400 feet AGL
Clouds: overcast cloud deck at 400 feet AGL
Weather: -DZ BR  (light drizzle, mist)

METAR text: KBWI 260019Z 00000KT 1SM R10/P6000FT -DZ BR OVC004 10/09 A2984 RMK AO2 P0000 T01000089
Conditions at: KBWI (BALTO/WASH INTL , MD, US) observed 0019 UTC 26 February 2020
Temperature: 10.0°C (50°F)
Dewpoint: 8.9°C (48°F) [RH = 93%]
Pressure (altimeter): 29.84 inches Hg (1010.6 mb)
Winds: calm
Visibility: 1.00 miles (1.61 km)
Ceiling: 400 feet AGL
Clouds: overcast cloud deck at 400 feet AGL
Weather: -DZ BR  (light drizzle, mist)

METAR text: KBWI 252354Z 36003KT 1SM R10/P6000FT -DZ BR OVC005 10/09 A2984 RMK AO2 SLP103 P0000 60000 T01000089 10106 20100 53017
Conditions at: KBWI (BALTO/WASH INTL , MD, US) observed 2354 UTC 25 February 2020
Temperature: 10.0°C (50°F)
Dewpoint: 8.9°C (48°F) [RH = 93%]
Pressure (altimeter): 29.84 inches Hg (1010.6 mb)
[Sea-level pressure: 1010.3 mb]
Winds: from the N (360 degrees) at 3 MPH (3 knots; 1.5 m/s)
Visibility: 1.00 miles (1.61 km)
Ceiling: 500 feet AGL
Clouds: overcast cloud deck at 500 feet AGL
Weather: -DZ BR  (light drizzle, mist)

METAR text: KBWI 252254Z 05004KT 3/4SM R10/P6000FT -DZ BR OVC003 10/09 A2982 RMK AO2 SLP096 P0000 T01000089
Conditions at: KBWI (BALTO/WASH INTL , MD, US) observed 2254 UTC 25 February 2020
Temperature: 10.0°C (50°F)
Dewpoint: 8.9°C (48°F) [RH = 93%]
Pressure (altimeter): 29.82 inches Hg (1009.9 mb)
[Sea-level pressure: 1009.6 mb]
Winds: from the NE (50 degrees) at 5 MPH (4 knots; 2.1 m/s)
Visibility: 0.75 miles (1.21 km)
Ceiling: 300 feet AGL
Clouds: overcast cloud deck at 300 feet AGL
Weather: -DZ BR  (light drizzle, mist)

METAR text: KBWI 252154Z 05005KT 3/4SM R10/P6000FT -DZ BR OVC003 10/09 A2979 RMK AO2 SLP087 P0000 T01000089
Conditions at: KBWI (BALTO/WASH INTL , MD, US) observed 2154 UTC 25 February 2020
Temperature: 10.0°C (50°F)
Dewpoint: 8.9°C (48°F) [RH = 93%]
Pressure (altimeter): 29.79 inches Hg (1008.9 mb)
[Sea-level pressure: 1008.7 mb]
Winds: from the NE (50 degrees) at 6 MPH (5 knots; 2.6 m/s)
Visibility: 0.75 miles (1.21 km)
Ceiling: 300 feet AGL
Clouds: overcast cloud deck at 300 feet AGL
Weather: -DZ BR  (light drizzle, mist)

METAR text: KBWI 252054Z 04004KT 1 3/4SM -DZ BR OVC003 10/09 A2979 RMK AO2 SLP086 P0000 60000 T01000089 55002
Conditions at: KBWI (BALTO/WASH INTL , MD, US) observed 2054 UTC 25 February 2020
Temperature: 10.0°C (50°F)
Dewpoint: 8.9°C (48°F) [RH = 93%]
Pressure (altimeter): 29.79 inches Hg (1008.9 mb)
[Sea-level pressure: 1008.6 mb]
Winds: from the NE (40 degrees) at 5 MPH (4 knots; 2.1 m/s)
Visibility: 1.75 miles (2.82 km)
Ceiling: 300 feet AGL
Clouds: overcast cloud deck at 300 feet AGL
Weather: -DZ BR  (light drizzle, mist)

METAR text: KBWI 251954Z 03003KT 1 1/2SM R10/5500VP6000FT -DZ BR OVC003 11/09 A2978 RMK AO2 SLP084 P0000 T01060094
Conditions at: KBWI (BALTO/WASH INTL , MD, US) observed 1954 UTC 25 February 2020
Temperature: 10.6°C (51°F)
Dewpoint: 9.4°C (49°F) [RH = 92%]
Pressure (altimeter): 29.78 inches Hg (1008.5 mb)
[Sea-level pressure: 1008.4 mb]
Winds: from the NNE (30 degrees) at 3 MPH (3 knots; 1.5 m/s)
Visibility: 1.50 miles (2.41 km)
Ceiling: 300 feet AGL
Clouds: overcast cloud deck at 300 feet AGL
Weather: -DZ BR  (light drizzle, mist)

METAR text: KBWI 251935Z 00000KT 1 1/2SM -DZ BR OVC003 11/09 A2978 RMK AO2 P0000 T01060094
Conditions at: KBWI (BALTO/WASH INTL , MD, US) observed 1935 UTC 25 February 2020
Temperature: 10.6°C (51°F)
Dewpoint: 9.4°C (49°F) [RH = 92%]
Pressure (altimeter): 29.78 inches Hg (1008.5 mb)
Winds: calm
Visibility: 1.50 miles (2.41 km)
Ceiling: 300 feet AGL
Clouds: overcast cloud deck at 300 feet AGL
Weather: -DZ BR  (light drizzle, mist)

METAR text: KBWI 251854Z 09003KT 2SM -DZ BR OVC003 11/09 A2977 RMK AO2 SLP082 P0000 T01060089
Conditions at: KBWI (BALTO/WASH INTL , MD, US) observed 1854 UTC 25 February 2020
Temperature: 10.6°C (51°F)
Dewpoint: 8.9°C (48°F) [RH = 89%]
Pressure (altimeter): 29.77 inches Hg (1008.2 mb)
[Sea-level pressure: 1008.2 mb]
Winds: from the E (90 degrees) at 3 MPH (3 knots; 1.5 m/s)
Visibility: 2.00 miles (3.22 km)
Ceiling: 300 feet AGL
Clouds: overcast cloud deck at 300 feet AGL
Weather: -DZ BR  (light drizzle, mist)

METAR text: KBWI 251852Z 09003KT 2SM -DZ BR OVC003 11/09 A2977 RMK AO2 P0000
Conditions at: KBWI (BALTO/WASH INTL , MD, US) observed 1852 UTC 25 February 2020
Temperature: 11.0°C (52°F)
Dewpoint: 9.0°C (48°F) [RH = 87%]
Pressure (altimeter): 29.77 inches Hg (1008.2 mb)
Winds: from the E (90 degrees) at 3 MPH (3 knots; 1.5 m/s)
Visibility: 2.00 miles (3.22 km)
Ceiling: 300 feet AGL
Clouds: overcast cloud deck at 300 feet AGL
Weather: -DZ BR  (light drizzle, mist)

METAR text: KBWI 251827Z 00000KT 3SM -DZ BR BKN003 OVC005 11/09 A2979 RMK AO2 P0000 T01060089
Conditions at: KBWI (BALTO/WASH INTL , MD, US) observed 1827 UTC 25 February 2020
Temperature: 10.6°C (51°F)
Dewpoint: 8.9°C (48°F) [RH = 89%]
Pressure (altimeter): 29.79 inches Hg (1008.9 mb)
Winds: calm
Visibility: 3 miles ( 5 km)
Ceiling: 300 feet AGL
Clouds: broken clouds at 300 feet AGL
overcast cloud deck at 500 feet AGL
Weather: -DZ BR  (light drizzle, mist)

METAR text: KBWI 251805Z 00000KT 2 1/2SM -DZ BR BKN003 OVC005 11/09 A2979 RMK AO2 P0000 T01060089
Conditions at: KBWI (BALTO/WASH INTL , MD, US) observed 1805 UTC 25 February 2020
Temperature: 10.6°C (51°F)
Dewpoint: 8.9°C (48°F) [RH = 89%]
Pressure (altimeter): 29.79 inches Hg (1008.9 mb)
Winds: calm
Visibility: 2.50 miles (4.02 km)
Ceiling: 300 feet AGL
Clouds: broken clouds at 300 feet AGL
overcast cloud deck at 500 feet AGL
Weather: -DZ BR  (light drizzle, mist)

METAR text: KBWI 251754Z 09003KT 4SM -DZ BR BKN003 OVC007 11/09 A2979 RMK AO2 RAE36DZB50 SLP088 P0001 60022 T01060089 10106 20078 58018
Conditions at: KBWI (BALTO/WASH INTL , MD, US) observed 1754 UTC 25 February 2020
Temperature: 10.6°C (51°F)
Dewpoint: 8.9°C (48°F) [RH = 89%]
Pressure (altimeter): 29.79 inches Hg (1008.9 mb)
[Sea-level pressure: 1008.8 mb]
Winds: from the E (90 degrees) at 3 MPH (3 knots; 1.5 m/s)
Visibility: 4 miles ( 6 km)
Ceiling: 300 feet AGL
Clouds: broken clouds at 300 feet AGL
overcast cloud deck at 700 feet AGL
Weather: -DZ BR  (light drizzle, mist)

METAR text: KBWI 251712Z VRB03KT 3SM -RA BR BKN003 OVC007 10/09 A2981 RMK AO2 P0001 T01000089
Conditions at: KBWI (BALTO/WASH INTL , MD, US) observed 1712 UTC 25 February 2020
Temperature: 10.0°C (50°F)
Dewpoint: 8.9°C (48°F) [RH = 93%]
Pressure (altimeter): 29.81 inches Hg (1009.6 mb)
Winds: variable direction winds at 3 MPH (3 knots; 1.5 m/s)
Visibility: 3 miles ( 5 km)
Ceiling: 300 feet AGL
Clouds: broken clouds at 300 feet AGL
overcast cloud deck at 700 feet AGL
Weather: -RA BR  (light rain, mist)

METAR text: KBWI 251654Z 12004KT 2 1/2SM -RA BR SCT003 OVC006 10/09 A2982 RMK AO2 SLP096 P0002 T01000089
Conditions at: KBWI (BALTO/WASH INTL , MD, US) observed 1654 UTC 25 February 2020
Temperature: 10.0°C (50°F)
Dewpoint: 8.9°C (48°F) [RH = 93%]
Pressure (altimeter): 29.82 inches Hg (1009.9 mb)
[Sea-level pressure: 1009.6 mb]
Winds: from the ESE (120 degrees) at 5 MPH (4 knots; 2.1 m/s)
Visibility: 2.50 miles (4.02 km)
Ceiling: 600 feet AGL
Clouds: scattered clouds at 300 feet AGL
overcast cloud deck at 600 feet AGL
Weather: -RA BR  (light rain, mist)

METAR text: KBWI 251554Z 12004KT 2SM -RA BR SCT003 OVC006 09/08 A2983 RMK AO2 SLP102 P0004 T00940078
Conditions at: KBWI (BALTO/WASH INTL , MD, US) observed 1554 UTC 25 February 2020
Temperature: 9.4°C (49°F)
Dewpoint: 7.8°C (46°F) [RH = 90%]
Pressure (altimeter): 29.83 inches Hg (1010.2 mb)
[Sea-level pressure: 1010.2 mb]
Winds: from the ESE (120 degrees) at 5 MPH (4 knots; 2.1 m/s)
Visibility: 2.00 miles (3.22 km)
Ceiling: 600 feet AGL
Clouds: scattered clouds at 300 feet AGL
overcast cloud deck at 600 feet AGL
Weather: -RA BR  (light rain, mist)

METAR text: KBWI 251454Z 00000KT 2 1/2SM -RA BR SCT003 OVC006 09/08 A2984 RMK AO2 SLP106 P0007 60015 T00890078 58004
Conditions at: KBWI (BALTO/WASH INTL , MD, US) observed 1454 UTC 25 February 2020
Temperature: 8.9°C (48°F)
Dewpoint: 7.8°C (46°F) [RH = 93%]
Pressure (altimeter): 29.84 inches Hg (1010.6 mb)
[Sea-level pressure: 1010.6 mb]
Winds: calm
Visibility: 2.50 miles (4.02 km)
Ceiling: 600 feet AGL
Clouds: scattered clouds at 300 feet AGL
overcast cloud deck at 600 feet AGL
Weather: -RA BR  (light rain, mist)

METAR text: KBWI 251440Z 00000KT 2SM -RA BR FEW003 BKN006 OVC011 09/08 A2985 RMK AO2 P0007 T00890078
Conditions at: KBWI (BALTO/WASH INTL , MD, US) observed 1440 UTC 25 February 2020
Temperature: 8.9°C (48°F)
Dewpoint: 7.8°C (46°F) [RH = 93%]
Pressure (altimeter): 29.85 inches Hg (1010.9 mb)
Winds: calm
Visibility: 2.00 miles (3.22 km)
Ceiling: 600 feet AGL
Clouds: few clouds at 300 feet AGL
broken clouds at 600 feet AGL
overcast cloud deck at 1100 feet AGL
Weather: -RA BR  (light rain, mist)

METAR text: KBWI 251354Z 13004KT 1 3/4SM -RA BR BKN006 OVC011 08/07 A2985 RMK AO2 SLP107 P0004 T00830072
Conditions at: KBWI (BALTO/WASH INTL , MD, US) observed 1354 UTC 25 February 2020
Temperature: 8.3°C (47°F)
Dewpoint: 7.2°C (45°F) [RH = 93%]
Pressure (altimeter): 29.85 inches Hg (1010.9 mb)
[Sea-level pressure: 1010.7 mb]
Winds: from the SE (130 degrees) at 5 MPH (4 knots; 2.1 m/s)
Visibility: 1.75 miles (2.82 km)
Ceiling: 600 feet AGL
Clouds: broken clouds at 600 feet AGL
overcast cloud deck at 1100 feet AGL
Weather: -RA BR  (light rain, mist)

METAR text: KBWI 251254Z 12003KT 1 1/2SM -RA BR OVC006 08/07 A2985 RMK AO2 SLP110 P0004 T00780067
Conditions at: KBWI (BALTO/WASH INTL , MD, US) observed 1254 UTC 25 February 2020
Temperature: 7.8°C (46°F)
Dewpoint: 6.7°C (44°F) [RH = 93%]
Pressure (altimeter): 29.85 inches Hg (1010.9 mb)
[Sea-level pressure: 1011.0 mb]
Winds: from the ESE (120 degrees) at 3 MPH (3 knots; 1.5 m/s)
Visibility: 1.50 miles (2.41 km)
Ceiling: 600 feet AGL
Clouds: overcast cloud deck at 600 feet AGL
Weather: -RA BR  (light rain, mist)

METAR text: KBWI 251219Z 11004KT 1 3/4SM -RA BR BKN006 OVC011 08/07 A2985 RMK AO2 P0002 T00780067
Conditions at: KBWI (BALTO/WASH INTL , MD, US) observed 1219 UTC 25 February 2020
Temperature: 7.8°C (46°F)
Dewpoint: 6.7°C (44°F) [RH = 93%]
Pressure (altimeter): 29.85 inches Hg (1010.9 mb)
Winds: from the ESE (110 degrees) at 5 MPH (4 knots; 2.1 m/s)
Visibility: 1.75 miles (2.82 km)
Ceiling: 600 feet AGL
Clouds: broken clouds at 600 feet AGL
overcast cloud deck at 1100 feet AGL
Weather: -RA BR  (light rain, mist)

METAR text: KBWI 251154Z 12004KT 2 1/2SM -RA BR BKN006 OVC012 08/07 A2986 RMK AO2 DZB17E46RAB46 SLP110 P0000 60000 T00780067 10089 20078 56004
Conditions at: KBWI (BALTO/WASH INTL , MD, US) observed 1154 UTC 25 February 2020
Temperature: 7.8°C (46°F)
Dewpoint: 6.7°C (44°F) [RH = 93%]
Pressure (altimeter): 29.86 inches Hg (1011.3 mb)
[Sea-level pressure: 1011.0 mb]
Winds: from the ESE (120 degrees) at 5 MPH (4 knots; 2.1 m/s)
Visibility: 2.50 miles (4.02 km)
Ceiling: 600 feet AGL
Clouds: broken clouds at 600 feet AGL
overcast cloud deck at 1200 feet AGL
Weather: -RA BR  (light rain, mist)

METAR text: KBWI 251128Z 12003KT 2 1/2SM -DZ BR OVC007 08/06 A2986 RMK AO2 DZB17 P0000 T00780061
Conditions at: KBWI (BALTO/WASH INTL , MD, US) observed 1128 UTC 25 February 2020
Temperature: 7.8°C (46°F)
Dewpoint: 6.1°C (43°F) [RH = 89%]
Pressure (altimeter): 29.86 inches Hg (1011.3 mb)
Winds: from the ESE (120 degrees) at 3 MPH (3 knots; 1.5 m/s)
Visibility: 2.50 miles (4.02 km)
Ceiling: 700 feet AGL
Clouds: overcast cloud deck at 700 feet AGL
Weather: -DZ BR  (light drizzle, mist)

METAR text: KBWI 251104Z 14004KT 7SM BKN008 BKN024 OVC029 08/06 A2986 RMK AO2 T00780061
Conditions at: KBWI (BALTO/WASH INTL , MD, US) observed 1104 UTC 25 February 2020
Temperature: 7.8°C (46°F)
Dewpoint: 6.1°C (43°F) [RH = 89%]
Pressure (altimeter): 29.86 inches Hg (1011.3 mb)
Winds: from the SE (140 degrees) at 5 MPH (4 knots; 2.1 m/s)
Visibility: 7 miles (11 km)
Ceiling: 800 feet AGL
Clouds: broken clouds at 800 feet AGL
broken clouds at 2400 feet AGL
overcast cloud deck at 2900 feet AGL
Weather: no significant weather observed at this time

METAR text: KBWI 251054Z 14003KT 7SM SCT010 OVC025 08/06 A2987 RMK AO2 RAB19E30 SLP113 P0000 T00780056
Conditions at: KBWI (BALTO/WASH INTL , MD, US) observed 1054 UTC 25 February 2020
Temperature: 7.8°C (46°F)
Dewpoint: 5.6°C (42°F) [RH = 86%]
Pressure (altimeter): 29.87 inches Hg (1011.6 mb)
[Sea-level pressure: 1011.3 mb]
Winds: from the SE (140 degrees) at 3 MPH (3 knots; 1.5 m/s)
Visibility: 7 miles (11 km)
Ceiling: 2500 feet AGL
Clouds: scattered clouds at 1000 feet AGL
overcast cloud deck at 2500 feet AGL
Weather: no significant weather observed at this time

Forecast for: KBWI (BALTO/WASH INTL , MD, US)
Text: KBWI 262050Z 2621/2724 09006KT 6SM BR OVC007
Forecast period: 2100 to 2300 UTC 26 February 2020
Forecast type: FROM: standard forecast or significant change
Winds: from the E (90 degrees) at 7 MPH (6 knots; 3.1 m/s)
Visibility: 6 miles (10 km)
Ceiling: 700 feet AGL
Clouds: overcast cloud deck at 700 feet AGL
Weather: BR  (mist)
Text: FM262300 10007KT 5SM BR OVC005
Forecast period: 2300 UTC 26 February 2020 to 0100 UTC 27 February 2020
Forecast type: FROM: standard forecast or significant change
Winds: from the E (100 degrees) at 8 MPH (7 knots; 3.6 m/s)
Visibility: 5 miles (8 km)
Ceiling: 500 feet AGL
Clouds: overcast cloud deck at 500 feet AGL
Weather: BR  (mist)
Text: FM270100 11010KT 5SM BR OVC003
Forecast period: 0100 to 0400 UTC 27 February 2020
Forecast type: FROM: standard forecast or significant change
Winds: from the ESE (110 degrees) at 12 MPH (10 knots; 5.1 m/s)
Visibility: 5 miles (8 km)
Ceiling: 300 feet AGL
Clouds: overcast cloud deck at 300 feet AGL
Weather: BR  (mist)
Text: FM270400 15010G17KT 2SM SHRA OVC010
Forecast period: 0400 to 0500 UTC 27 February 2020
Forecast type: FROM: standard forecast or significant change
Winds: from the SSE (150 degrees) at 12 MPH (10 knots; 5.1 m/s)
gusting to 20 MPH (17 knots; 8.7 m/s)
Visibility: 2.00 miles (3.22 km)
Ceiling: 1000 feet AGL
Clouds: overcast cloud deck at 1000 feet AGL
Weather: SHRA  (rain showers)
Text: FM270500 24011G20KT 5SM SHRA OVC015
Forecast period: 0500 to 0600 UTC 27 February 2020
Forecast type: FROM: standard forecast or significant change
Winds: from the WSW (240 degrees) at 13 MPH (11 knots; 5.7 m/s)
gusting to 23 MPH (20 knots; 10.3 m/s)
Visibility: 5 miles (8 km)
Ceiling: 1500 feet AGL
Clouds: overcast cloud deck at 1500 feet AGL
Weather: SHRA  (rain showers)
Text: FM270600 28013G22KT 5SM -SHRA OVC025
Forecast period: 0600 to 0800 UTC 27 February 2020
Forecast type: FROM: standard forecast or significant change
Winds: from the W (280 degrees) at 15 MPH (13 knots; 6.7 m/s)
gusting to 25 MPH (22 knots; 11.3 m/s)
Visibility: 5 miles (8 km)
Ceiling: 2500 feet AGL
Clouds: overcast cloud deck at 2500 feet AGL
Weather: -SHRA  (light rain showers)
Text: FM270800 27014G24KT P6SM BKN090
Forecast period: 0800 to 1200 UTC 27 February 2020
Forecast type: FROM: standard forecast or significant change
Winds: from the W (270 degrees) at 16 MPH (14 knots; 7.2 m/s)
gusting to 28 MPH (24 knots; 12.3 m/s)
Visibility: 6 or more miles 10+ km)
Ceiling: 9000 feet AGL
Clouds: broken clouds at 9000 feet AGL
Weather: no significant weather forecast for this period
Text: FM271200 27015G25KT P6SM FEW200
Forecast period: 1200 to 1500 UTC 27 February 2020
Forecast type: FROM: standard forecast or significant change
Winds: from the W (270 degrees) at 17 MPH (15 knots; 7.7 m/s)
gusting to 29 MPH (25 knots; 12.9 m/s)
Visibility: 6 or more miles 10+ km)
Ceiling: at least 12,000 feet AGL
Clouds: few clouds at 20000 feet AGL
Weather: no significant weather forecast for this period
Text: FM271500 27020G35KT P6SM FEW250
Forecast period: 1500 UTC 27 February 2020 to 0000 UTC 28 February 2020
Forecast type: FROM: standard forecast or significant change
Winds: from the W (270 degrees) at 23 MPH (20 knots; 10.3 m/s)
gusting to 40 MPH (35 knots; 18.0 m/s)
Visibility: 6 or more miles 10+ km)
Ceiling: at least 12,000 feet AGL
Clouds: few clouds at 25000 feet AGL
Weather: no significant weather forecast for this period